sensor_id;sensor_type;location;lat;lon;timestamp;pressure;altitude;pressure_sealevel;temperature;humidity
18137;BME280;9194;42.632;23.298;2022-07-21T00:00:44;92907.88;;;16.52;87.89
18137;BME280;9194;42.632;23.298;2022-07-21T00:11:53;92901.78;;;16.47;88.86
18137;BME280;9194;42.632;23.298;2022-07-21T00:16:54;92911.53;;;16.51;88.30
18137;BME280;9194;42.632;23.298;2022-07-21T00:21:56;92908.88;;;16.46;89.18
18137;BME280;9194;42.632;23.298;2022-07-21T00:26:57;92906.25;;;16.46;89.12
18137;BME280;9194;42.632;23.298;2022-07-21T00:31:59;92912.03;;;16.48;89.82
18137;BME280;9194;42.632;23.298;2022-07-21T00:37:01;92912.72;;;16.38;90.17
18137;BME280;9194;42.632;23.298;2022-07-21T00:42:03;92907.66;;;16.32;89.24
18137;BME280;9194;42.632;23.298;2022-07-21T00:47:04;92906.53;;;16.23;88.14
18137;BME280;9194;42.632;23.298;2022-07-21T00:52:05;92905.50;;;16.24;89.08
18137;BME280;9194;42.632;23.298;2022-07-21T00:57:08;92904.22;;;16.26;91.37
18137;BME280;9194;42.632;23.298;2022-07-21T01:02:09;92912.59;;;16.23;89.91
18137;BME280;9194;42.632;23.298;2022-07-21T01:07:11;92903.59;;;16.19;91.23
18137;BME280;9194;42.632;23.298;2022-07-21T01:12:13;92895.69;;;16.14;92.05
18137;BME280;9194;42.632;23.298;2022-07-21T01:17:17;92889.59;;;16.09;92.00
18137;BME280;9194;42.632;23.298;2022-07-21T01:22:19;92881.75;;;16.14;92.17
18137;BME280;9194;42.632;23.298;2022-07-21T01:27:25;92883.81;;;16.07;92.69
18137;BME280;9194;42.632;23.298;2022-07-21T01:32:26;92880.44;;;16.11;93.43
18137;BME280;9194;42.632;23.298;2022-07-21T01:37:29;92883.81;;;16.07;93.79
18137;BME280;9194;42.632;23.298;2022-07-21T01:42:31;92876.16;;;16.05;93.61
18137;BME280;9194;42.632;23.298;2022-07-21T01:47:33;92874.53;;;15.99;93.87
18137;BME280;9194;42.632;23.298;2022-07-21T01:52:35;92874.78;;;15.97;93.66
18137;BME280;9194;42.632;23.298;2022-07-21T01:57:37;92871.09;;;15.98;94.45
18137;BME280;9194;42.632;23.298;2022-07-21T02:02:38;92869.09;;;16.06;93.46
18137;BME280;9194;42.632;23.298;2022-07-21T02:07:39;92870.25;;;15.93;94.06
18137;BME280;9194;42.632;23.298;2022-07-21T02:12:41;92874.16;;;15.90;93.13
18137;BME280;9194;42.632;23.298;2022-07-21T02:17:42;92877.00;;;15.84;93.87
18137;BME280;9194;42.632;23.298;2022-07-21T02:22:43;92877.25;;;15.82;95.54
18137;BME280;9194;42.632;23.298;2022-07-21T02:27:46;92870.41;;;15.81;95.60
18137;BME280;9194;42.632;23.298;2022-07-21T02:32:48;92867.00;;;15.81;95.75
18137;BME280;9194;42.632;23.298;2022-07-21T02:37:49;92865.72;;;15.83;94.30
18137;BME280;9194;42.632;23.298;2022-07-21T02:42:50;92869.31;;;15.77;93.70
18137;BME280;9194;42.632;23.298;2022-07-21T02:48:09;92861.44;;;15.77;93.20
18137;BME280;9194;42.632;23.298;2022-07-21T02:53:13;92859.91;;;15.81;94.01
18137;BME280;9194;42.632;23.298;2022-07-21T02:58:18;92867.69;;;15.71;96.07
18137;BME280;9194;42.632;23.298;2022-07-21T03:03:22;92866.28;;;15.64;96.58
18137;BME280;9194;42.632;23.298;2022-07-21T03:08:24;92870.84;;;15.73;96.94
18137;BME280;9194;42.632;23.298;2022-07-21T03:13:26;92870.41;;;15.81;97.12
18137;BME280;9194;42.632;23.298;2022-07-21T03:18:27;92861.97;;;15.79;98.25
18137;BME280;9194;42.632;23.298;2022-07-21T03:23:29;92869.13;;;15.84;99.13
18137;BME280;9194;42.632;23.298;2022-07-21T03:28:30;92875.72;;;15.86;99.44
18137;BME280;9194;42.632;23.298;2022-07-21T03:33:32;92877.84;;;15.89;99.94
18137;BME280;9194;42.632;23.298;2022-07-21T03:38:34;92880.72;;;15.88;99.76
18137;BME280;9194;42.632;23.298;2022-07-21T03:43:36;92876.88;;;15.95;100.00
18137;BME280;9194;42.632;23.298;2022-07-21T03:48:37;92872.00;;;16.09;99.09
18137;BME280;9194;42.632;23.298;2022-07-21T03:53:38;92874.97;;;16.18;99.19
18137;BME280;9194;42.632;23.298;2022-07-21T03:58:39;92875.25;;;16.21;100.00
18137;BME280;9194;42.632;23.298;2022-07-21T04:03:41;92881.13;;;16.28;100.00
18137;BME280;9194;42.632;23.298;2022-07-21T04:08:42;92884.38;;;16.40;100.00
18137;BME280;9194;42.632;23.298;2022-07-21T04:13:43;92879.78;;;16.58;100.00
18137;BME280;9194;42.632;23.298;2022-07-21T04:18:50;92873.88;;;16.72;100.00
18137;BME280;9194;42.632;23.298;2022-07-21T04:23:52;92878.72;;;16.86;100.00
18137;BME280;9194;42.632;23.298;2022-07-21T04:28:54;92881.50;;;17.06;97.36
18137;BME280;9194;42.632;23.298;2022-07-21T04:33:56;92861.59;;;17.25;95.12
18137;BME280;9194;42.632;23.298;2022-07-21T04:38:57;92874.47;;;17.69;86.94
18137;BME280;9194;42.632;23.298;2022-07-21T04:43:59;92883.47;;;17.88;87.50
18137;BME280;9194;42.632;23.298;2022-07-21T04:49:01;92885.84;;;17.89;90.33
18137;BME280;9194;42.632;23.298;2022-07-21T04:54:03;92886.38;;;17.91;87.17
18137;BME280;9194;42.632;23.298;2022-07-21T04:59:08;92890.63;;;18.02;87.02
18137;BME280;9194;42.632;23.298;2022-07-21T05:04:10;92888.78;;;18.08;87.31
18137;BME280;9194;42.632;23.298;2022-07-21T05:09:11;92892.50;;;18.17;85.45
18137;BME280;9194;42.632;23.298;2022-07-21T05:14:12;92893.06;;;18.34;87.48
18137;BME280;9194;42.632;23.298;2022-07-21T05:19:14;92890.44;;;18.39;87.61
18137;BME280;9194;42.632;23.298;2022-07-21T05:24:15;92892.53;;;18.53;88.16
18137;BME280;9194;42.632;23.298;2022-07-21T05:29:16;92894.19;;;18.79;84.92
18137;BME280;9194;42.632;23.298;2022-07-21T05:34:18;92894.97;;;18.84;84.42
18137;BME280;9194;42.632;23.298;2022-07-21T05:39:19;92898.91;;;19.12;83.02
18137;BME280;9194;42.632;23.298;2022-07-21T05:44:20;92894.38;;;19.28;80.53
18137;BME280;9194;42.632;23.298;2022-07-21T05:49:22;92902.81;;;19.50;82.59
18137;BME280;9194;42.632;23.298;2022-07-21T05:54:23;92895.66;;;19.61;82.24
18137;BME280;9194;42.632;23.298;2022-07-21T05:59:24;92897.41;;;19.81;81.97
18137;BME280;9194;42.632;23.298;2022-07-21T06:04:26;92894.78;;;19.81;80.98
18137;BME280;9194;42.632;23.298;2022-07-21T06:09:27;92896.06;;;19.93;84.94
18137;BME280;9194;42.632;23.298;2022-07-21T06:14:28;92888.50;;;20.26;81.67
18137;BME280;9194;42.632;23.298;2022-07-21T06:19:30;92881.91;;;20.67;78.52
18137;BME280;9194;42.632;23.298;2022-07-21T06:24:34;92892.16;;;21.08;78.73
18137;BME280;9194;42.632;23.298;2022-07-21T06:29:35;92884.22;;;21.08;76.44
18137;BME280;9194;42.632;23.298;2022-07-21T06:34:36;92887.81;;;21.22;74.34
18137;BME280;9194;42.632;23.298;2022-07-21T06:39:38;92877.84;;;21.66;75.36
18137;BME280;9194;42.632;23.298;2022-07-21T06:44:42;92879.38;;;22.15;64.93
18137;BME280;9194;42.632;23.298;2022-07-21T06:49:48;92881.78;;;22.35;68.52
18137;BME280;9194;42.632;23.298;2022-07-21T06:54:49;92883.91;;;22.52;69.85
18137;BME280;9194;42.632;23.298;2022-07-21T06:59:50;92878.66;;;22.66;64.76
18137;BME280;9194;42.632;23.298;2022-07-21T07:04:52;92882.38;;;22.83;64.45
18137;BME280;9194;42.632;23.298;2022-07-21T07:09:53;92873.75;;;23.10;63.40
18137;BME280;9194;42.632;23.298;2022-07-21T07:14:54;92876.03;;;23.30;61.67
18137;BME280;9194;42.632;23.298;2022-07-21T07:19:55;92873.06;;;23.51;63.71
18137;BME280;9194;42.632;23.298;2022-07-21T07:24:57;92881.63;;;23.75;58.87
18137;BME280;9194;42.632;23.298;2022-07-21T07:29:58;92875.03;;;23.86;58.05
18137;BME280;9194;42.632;23.298;2022-07-21T07:35:02;92862.41;;;24.19;57.10
18137;BME280;9194;42.632;23.298;2022-07-21T07:40:10;92857.69;;;24.52;57.83
18137;BME280;9194;42.632;23.298;2022-07-21T07:45:13;92858.44;;;24.66;56.44
18137;BME280;9194;42.632;23.298;2022-07-21T07:50:15;92855.00;;;24.88;52.91
18137;BME280;9194;42.632;23.298;2022-07-21T07:55:16;92854.47;;;25.00;51.94
18137;BME280;9194;42.632;23.298;2022-07-21T08:00:18;92857.88;;;25.14;52.36
18137;BME280;9194;42.632;23.298;2022-07-21T08:05:23;92842.00;;;25.40;52.50
18137;BME280;9194;42.632;23.298;2022-07-21T08:10:24;92840.34;;;25.52;51.73
18137;BME280;9194;42.632;23.298;2022-07-21T08:15:25;92840.88;;;25.63;51.64
18137;BME280;9194;42.632;23.298;2022-07-21T08:20:27;92840.94;;;25.80;50.73
18137;BME280;9194;42.632;23.298;2022-07-21T08:25:28;92832.81;;;25.94;50.74
18137;BME280;9194;42.632;23.298;2022-07-21T08:30:30;92835.38;;;26.16;50.81
18137;BME280;9194;42.632;23.298;2022-07-21T08:35:32;92839.34;;;26.27;49.71
18137;BME280;9194;42.632;23.298;2022-07-21T08:40:38;92838.59;;;26.44;49.22
18137;BME280;9194;42.632;23.298;2022-07-21T08:45:41;92824.75;;;26.50;49.61
18137;BME280;9194;42.632;23.298;2022-07-21T08:50:43;92821.97;;;26.55;49.23
18137;BME280;9194;42.632;23.298;2022-07-21T08:55:47;92826.34;;;26.60;46.05
18137;BME280;9194;42.632;23.298;2022-07-21T09:00:50;92819.72;;;26.75;48.39
18137;BME280;9194;42.632;23.298;2022-07-21T09:05:59;92817.72;;;26.89;47.36
18137;BME280;9194;42.632;23.298;2022-07-21T09:16:12;92823.81;;;26.98;45.60
18137;BME280;9194;42.632;23.298;2022-07-21T09:21:15;92810.44;;;27.15;46.48
18137;BME280;9194;42.632;23.298;2022-07-21T09:26:17;92808.66;;;27.28;47.38
18137;BME280;9194;42.632;23.298;2022-07-21T09:31:18;92804.19;;;27.49;45.34
18137;BME280;9194;42.632;23.298;2022-07-21T09:36:19;92810.31;;;27.50;44.09
18137;BME280;9194;42.632;23.298;2022-07-21T09:41:24;92801.50;;;27.49;43.49
18137;BME280;9194;42.632;23.298;2022-07-21T09:46:30;92795.59;;;27.73;44.07
18137;BME280;9194;42.632;23.298;2022-07-21T09:51:34;92799.22;;;27.77;42.72
18137;BME280;9194;42.632;23.298;2022-07-21T09:56:40;92802.69;;;27.77;43.53
18137;BME280;9194;42.632;23.298;2022-07-21T10:01:42;92798.44;;;27.76;42.54
18137;BME280;9194;42.632;23.298;2022-07-21T10:06:46;92791.41;;;27.72;41.59
18137;BME280;9194;42.632;23.298;2022-07-21T10:11:47;92787.84;;;28.09;42.97
18137;BME280;9194;42.632;23.298;2022-07-21T10:16:48;92776.88;;;28.02;41.68
18137;BME280;9194;42.632;23.298;2022-07-21T10:27:13;92772.66;;;28.01;41.59
18137;BME280;9194;42.632;23.298;2022-07-21T10:32:22;92766.75;;;28.08;42.24
18137;BME280;9194;42.632;23.298;2022-07-21T10:42:40;92760.22;;;28.47;41.83
18137;BME280;9194;42.632;23.298;2022-07-21T10:47:41;92766.78;;;28.49;41.68
18137;BME280;9194;42.632;23.298;2022-07-21T10:57:45;92754.25;;;28.62;40.13
18137;BME280;9194;42.632;23.298;2022-07-21T11:02:48;92745.75;;;28.81;39.71
18137;BME280;9194;42.632;23.298;2022-07-21T11:08:16;92740.09;;;28.94;40.13
18137;BME280;9194;42.632;23.298;2022-07-21T11:13:19;92738.16;;;28.62;38.43
18137;BME280;9194;42.632;23.298;2022-07-21T11:18:25;92728.88;;;28.80;41.17
18137;BME280;9194;42.632;23.298;2022-07-21T11:23:52;92731.84;;;28.99;38.75
18137;BME280;9194;42.632;23.298;2022-07-21T11:29:06;92728.25;;;28.95;37.23
18137;BME280;9194;42.632;23.298;2022-07-21T11:34:08;92734.97;;;29.02;39.75
18137;BME280;9194;42.632;23.298;2022-07-21T11:39:15;92724.94;;;29.11;40.57
18137;BME280;9194;42.632;23.298;2022-07-21T11:44:23;92726.94;;;29.14;38.71
18137;BME280;9194;42.632;23.298;2022-07-21T11:49:27;92723.41;;;29.22;39.22
18137;BME280;9194;42.632;23.298;2022-07-21T11:54:37;92716.47;;;29.21;40.07
18137;BME280;9194;42.632;23.298;2022-07-21T11:59:39;92714.78;;;29.16;39.04
18137;BME280;9194;42.632;23.298;2022-07-21T12:04:46;92705.72;;;29.21;39.42
18137;BME280;9194;42.632;23.298;2022-07-21T12:09:53;92710.22;;;29.17;40.43
18137;BME280;9194;42.632;23.298;2022-07-21T12:14:55;92707.66;;;29.32;38.49
18137;BME280;9194;42.632;23.298;2022-07-21T12:20:00;92696.69;;;29.25;38.93
18137;BME280;9194;42.632;23.298;2022-07-21T12:25:02;92696.84;;;29.41;38.68
18137;BME280;9194;42.632;23.298;2022-07-21T12:30:05;92692.13;;;29.38;39.84
18137;BME280;9194;42.632;23.298;2022-07-21T12:35:20;92690.47;;;29.46;39.92
18137;BME280;9194;42.632;23.298;2022-07-21T12:40:21;92684.09;;;29.50;39.44
18137;BME280;9194;42.632;23.298;2022-07-21T12:45:23;92682.53;;;29.49;39.92
18137;BME280;9194;42.632;23.298;2022-07-21T12:50:24;92675.91;;;29.59;40.18
18137;BME280;9194;42.632;23.298;2022-07-21T12:55:26;92679.19;;;29.52;40.08
18137;BME280;9194;42.632;23.298;2022-07-21T13:00:27;92683.44;;;29.41;39.10
18137;BME280;9194;42.632;23.298;2022-07-21T13:05:28;92669.13;;;29.37;41.19
18137;BME280;9194;42.632;23.298;2022-07-21T13:10:30;92670.00;;;29.29;42.78
18137;BME280;9194;42.632;23.298;2022-07-21T13:15:31;92657.91;;;29.11;42.87
18137;BME280;9194;42.632;23.298;2022-07-21T13:20:35;92655.56;;;29.21;42.76
18137;BME280;9194;42.632;23.298;2022-07-21T13:25:36;92657.97;;;29.35;41.58
18137;BME280;9194;42.632;23.298;2022-07-21T13:30:38;92656.22;;;29.30;40.73
18137;BME280;9194;42.632;23.298;2022-07-21T13:35:39;92656.91;;;29.27;40.74
18137;BME280;9194;42.632;23.298;2022-07-21T13:40:41;92655.44;;;29.30;42.93
18137;BME280;9194;42.632;23.298;2022-07-21T13:45:42;92652.78;;;29.18;42.74
18137;BME280;9194;42.632;23.298;2022-07-21T13:50:44;92652.91;;;29.21;42.26
18137;BME280;9194;42.632;23.298;2022-07-21T13:55:45;92653.13;;;29.16;41.93
18137;BME280;9194;42.632;23.298;2022-07-21T14:00:47;92651.88;;;29.26;39.89
18137;BME280;9194;42.632;23.298;2022-07-21T14:05:48;92646.44;;;29.47;40.83
18137;BME280;9194;42.632;23.298;2022-07-21T14:10:49;92648.75;;;29.48;38.71
18137;BME280;9194;42.632;23.298;2022-07-21T14:15:51;92640.31;;;29.34;40.37
18137;BME280;9194;42.632;23.298;2022-07-21T14:20:52;92639.38;;;29.42;40.52
18137;BME280;9194;42.632;23.298;2022-07-21T14:25:54;92637.38;;;29.39;40.90
18137;BME280;9194;42.632;23.298;2022-07-21T14:30:55;92643.53;;;29.39;39.58
18137;BME280;9194;42.632;23.298;2022-07-21T14:35:57;92640.63;;;29.32;39.78
18137;BME280;9194;42.632;23.298;2022-07-21T14:40:59;92645.75;;;29.37;40.43
18137;BME280;9194;42.632;23.298;2022-07-21T14:46:01;92633.91;;;29.26;40.61
18137;BME280;9194;42.632;23.298;2022-07-21T14:51:03;92634.22;;;29.25;41.07
18137;BME280;9194;42.632;23.298;2022-07-21T14:56:04;92636.84;;;29.33;41.04
18137;BME280;9194;42.632;23.298;2022-07-21T15:01:06;92633.56;;;29.28;40.57
18137;BME280;9194;42.632;23.298;2022-07-21T15:06:07;92626.09;;;29.21;41.17
18137;BME280;9194;42.632;23.298;2022-07-21T15:11:09;92620.38;;;28.98;43.72
18137;BME280;9194;42.632;23.298;2022-07-21T15:16:11;92618.03;;;28.97;41.37
18137;BME280;9194;42.632;23.298;2022-07-21T15:21:12;92615.69;;;28.95;40.32
18137;BME280;9194;42.632;23.298;2022-07-21T15:26:14;92614.56;;;28.96;40.78
18137;BME280;9194;42.632;23.298;2022-07-21T15:31:15;92609.16;;;28.72;43.44
18137;BME280;9194;42.632;23.298;2022-07-21T15:36:16;92612.78;;;28.43;44.01
18137;BME280;9194;42.632;23.298;2022-07-21T15:41:17;92610.09;;;28.43;43.46
18137;BME280;9194;42.632;23.298;2022-07-21T15:46:19;92606.16;;;28.29;44.28
18137;BME280;9194;42.632;23.298;2022-07-21T15:51:20;92612.09;;;28.34;44.23
18137;BME280;9194;42.632;23.298;2022-07-21T15:56:22;92611.38;;;28.13;45.48
18137;BME280;9194;42.632;23.298;2022-07-21T16:01:23;92616.13;;;27.87;46.38
18137;BME280;9194;42.632;23.298;2022-07-21T16:06:24;92619.13;;;27.85;45.48
18137;BME280;9194;42.632;23.298;2022-07-21T16:11:26;92617.50;;;27.93;45.54
18137;BME280;9194;42.632;23.298;2022-07-21T16:16:27;92613.97;;;28.01;45.13
18137;BME280;9194;42.632;23.298;2022-07-21T16:21:30;92621.56;;;27.78;46.46
18137;BME280;9194;42.632;23.298;2022-07-21T16:26:32;92623.59;;;27.60;47.24
18137;BME280;9194;42.632;23.298;2022-07-21T16:31:35;92616.25;;;27.49;47.11
18137;BME280;9194;42.632;23.298;2022-07-21T16:36:37;92629.72;;;27.02;49.53
18137;BME280;9194;42.632;23.298;2022-07-21T16:41:38;92632.53;;;26.59;51.42
18137;BME280;9194;42.632;23.298;2022-07-21T16:46:39;92641.72;;;26.24;52.52
18137;BME280;9194;42.632;23.298;2022-07-21T16:51:41;92639.81;;;25.81;54.59
18137;BME280;9194;42.632;23.298;2022-07-21T16:56:43;92635.88;;;25.53;55.23
18137;BME280;9194;42.632;23.298;2022-07-21T17:01:45;92642.72;;;25.28;56.89
18137;BME280;9194;42.632;23.298;2022-07-21T17:06:46;92642.16;;;24.91;58.27
18137;BME280;9194;42.632;23.298;2022-07-21T17:11:47;92640.78;;;24.63;59.21
18137;BME280;9194;42.632;23.298;2022-07-21T17:16:49;92638.63;;;24.43;59.98
18137;BME280;9194;42.632;23.298;2022-07-21T17:21:53;92639.97;;;24.09;60.93
18137;BME280;9194;42.632;23.298;2022-07-21T17:26:54;92644.38;;;23.92;61.44
18137;BME280;9194;42.632;23.298;2022-07-21T17:31:55;92647.63;;;23.66;62.89
18137;BME280;9194;42.632;23.298;2022-07-21T17:36:57;92657.69;;;23.42;63.85
18137;BME280;9194;42.632;23.298;2022-07-21T17:42:04;92643.88;;;23.18;63.72
18137;BME280;9194;42.632;23.298;2022-07-21T17:47:06;92654.13;;;22.97;64.60
18137;BME280;9194;42.632;23.298;2022-07-21T17:52:08;92647.94;;;22.74;64.63
18137;BME280;9194;42.632;23.298;2022-07-21T17:57:09;92650.16;;;22.53;66.19
18137;BME280;9194;42.632;23.298;2022-07-21T18:02:29;92648.94;;;22.32;67.46
18137;BME280;9194;42.632;23.298;2022-07-21T18:07:30;92653.81;;;22.25;66.75
18137;BME280;9194;42.632;23.298;2022-07-21T18:12:32;92659.09;;;22.11;67.15
18137;BME280;9194;42.632;23.298;2022-07-21T18:17:33;92653.47;;;21.99;67.32
18137;BME280;9194;42.632;23.298;2022-07-21T18:22:35;92655.56;;;21.84;68.54
18137;BME280;9194;42.632;23.298;2022-07-21T18:27:36;92659.13;;;21.74;69.12
18137;BME280;9194;42.632;23.298;2022-07-21T18:32:37;92673.16;;;21.75;69.18
18137;BME280;9194;42.632;23.298;2022-07-21T18:37:40;92668.03;;;21.64;70.85
18137;BME280;9194;42.632;23.298;2022-07-21T18:42:41;92667.38;;;21.54;71.39
18137;BME280;9194;42.632;23.298;2022-07-21T18:47:43;92678.81;;;21.49;71.95
18137;BME280;9194;42.632;23.298;2022-07-21T18:52:46;92681.84;;;21.43;72.04
18137;BME280;9194;42.632;23.298;2022-07-21T18:57:47;92677.38;;;21.38;71.18
18137;BME280;9194;42.632;23.298;2022-07-21T19:02:52;92680.41;;;21.32;70.37
18137;BME280;9194;42.632;23.298;2022-07-21T19:07:54;92695.25;;;21.27;69.05
18137;BME280;9194;42.632;23.298;2022-07-21T19:18:57;92693.03;;;21.16;70.54
18137;BME280;9194;42.632;23.298;2022-07-21T19:23:58;92687.25;;;21.09;69.63
18137;BME280;9194;42.632;23.298;2022-07-21T19:29:00;92692.13;;;21.02;68.11
18137;BME280;9194;42.632;23.298;2022-07-21T19:34:01;92700.28;;;21.05;68.48
18137;BME280;9194;42.632;23.298;2022-07-21T19:39:03;92701.13;;;21.01;67.70
18137;BME280;9194;42.632;23.298;2022-07-21T19:44:04;92693.56;;;21.13;66.53
18137;BME280;9194;42.632;23.298;2022-07-21T19:49:06;92701.94;;;21.25;66.27
18137;BME280;9194;42.632;23.298;2022-07-21T19:54:07;92694.28;;;21.42;65.45
18137;BME280;9194;42.632;23.298;2022-07-21T19:59:09;92697.78;;;21.56;63.53
18137;BME280;9194;42.632;23.298;2022-07-21T20:04:11;92698.59;;;21.57;64.28
18137;BME280;9194;42.632;23.298;2022-07-21T20:09:13;92695.66;;;21.58;64.01
18137;BME280;9194;42.632;23.298;2022-07-21T20:14:14;92699.59;;;21.80;62.31
18137;BME280;9194;42.632;23.298;2022-07-21T20:19:16;92700.16;;;21.77;62.62
18137;BME280;9194;42.632;23.298;2022-07-21T20:24:18;92712.47;;;21.86;62.59
18137;BME280;9194;42.632;23.298;2022-07-21T20:29:19;92711.19;;;21.84;62.62
18137;BME280;9194;42.632;23.298;2022-07-21T20:34:21;92715.31;;;21.95;61.29
18137;BME280;9194;42.632;23.298;2022-07-21T20:39:22;92712.31;;;22.15;59.07
18137;BME280;9194;42.632;23.298;2022-07-21T20:44:24;92707.03;;;22.15;59.35
18137;BME280;9194;42.632;23.298;2022-07-21T20:49:25;92707.94;;;22.24;58.56
18137;BME280;9194;42.632;23.298;2022-07-21T20:54:29;92713.53;;;22.23;59.79
18137;BME280;9194;42.632;23.298;2022-07-21T20:59:31;92707.00;;;22.01;61.06
18137;BME280;9194;42.632;23.298;2022-07-21T21:04:32;92713.44;;;21.95;59.15
18137;BME280;9194;42.632;23.298;2022-07-21T21:09:33;92710.63;;;22.05;60.56
18137;BME280;9194;42.632;23.298;2022-07-21T21:14:35;92714.91;;;21.83;63.01
18137;BME280;9194;42.632;23.298;2022-07-21T21:19:36;92705.59;;;21.48;66.76
18137;BME280;9194;42.632;23.298;2022-07-21T21:24:38;92708.84;;;21.21;68.81
18137;BME280;9194;42.632;23.298;2022-07-21T21:29:39;92718.88;;;21.00;70.16
18137;BME280;9194;42.632;23.298;2022-07-21T21:34:41;92713.97;;;20.88;70.44
18137;BME280;9194;42.632;23.298;2022-07-21T21:39:42;92720.84;;;20.89;69.75
18137;BME280;9194;42.632;23.298;2022-07-21T21:44:44;92715.94;;;20.78;71.61
18137;BME280;9194;42.632;23.298;2022-07-21T21:49:45;92717.63;;;20.92;66.98
18137;BME280;9194;42.632;23.298;2022-07-21T21:54:47;92718.97;;;21.14;65.28
18137;BME280;9194;42.632;23.298;2022-07-21T21:59:48;92720.59;;;21.10;65.22
18137;BME280;9194;42.632;23.298;2022-07-21T22:04:49;92713.16;;;21.12;64.82
18137;BME280;9194;42.632;23.298;2022-07-21T22:09:50;92716.44;;;21.27;62.07
18137;BME280;9194;42.632;23.298;2022-07-21T22:14:52;92718.94;;;21.19;63.98
18137;BME280;9194;42.632;23.298;2022-07-21T22:19:53;92721.47;;;21.29;62.45
18137;BME280;9194;42.632;23.298;2022-07-21T22:24:55;92725.25;;;21.23;62.23
18137;BME280;9194;42.632;23.298;2022-07-21T22:29:57;92720.53;;;21.20;63.01
18137;BME280;9194;42.632;23.298;2022-07-21T22:34:59;92731.06;;;21.25;62.19
18137;BME280;9194;42.632;23.298;2022-07-21T22:40:00;92726.03;;;21.23;62.42
18137;BME280;9194;42.632;23.298;2022-07-21T22:45:02;92726.56;;;21.25;62.28
18137;BME280;9194;42.632;23.298;2022-07-21T22:50:03;92726.75;;;21.29;62.83
18137;BME280;9194;42.632;23.298;2022-07-21T22:55:05;92718.22;;;21.32;61.36
18137;BME280;9194;42.632;23.298;2022-07-21T23:00:07;92714.88;;;21.26;60.87
18137;BME280;9194;42.632;23.298;2022-07-21T23:05:09;92719.38;;;21.26;61.55
18137;BME280;9194;42.632;23.298;2022-07-21T23:10:10;92726.38;;;21.17;63.08
18137;BME280;9194;42.632;23.298;2022-07-21T23:15:12;92731.13;;;21.20;62.33
18137;BME280;9194;42.632;23.298;2022-07-21T23:20:13;92740.75;;;21.53;60.46
18137;BME280;9194;42.632;23.298;2022-07-21T23:25:14;92735.16;;;21.36;61.92
18137;BME280;9194;42.632;23.298;2022-07-21T23:30:16;92736.00;;;21.50;60.33
18137;BME280;9194;42.632;23.298;2022-07-21T23:35:17;92731.47;;;21.32;63.18
18137;BME280;9194;42.632;23.298;2022-07-21T23:40:19;92731.13;;;21.20;61.88
18137;BME280;9194;42.632;23.298;2022-07-21T23:45:21;92722.66;;;21.18;62.86
18137;BME280;9194;42.632;23.298;2022-07-21T23:50:23;92725.59;;;21.16;63.51
18137;BME280;9194;42.632;23.298;2022-07-21T23:55:24;92716.78;;;21.21;60.63
